sensor_id;sensor_type;location;lat;lon;timestamp;pressure;altitude;pressure_sealevel;temperature;humidity
77323;BME280;66384;51.052;9.850;2023-08-06T00:02:15;97772.86;;;16.81;70.59
77323;BME280;66384;51.052;9.850;2023-08-06T00:04:46;97774.39;;;16.84;70.60
77323;BME280;66384;51.052;9.850;2023-08-06T00:07:18;97777.33;;;16.86;70.50
77323;BME280;66384;51.052;9.850;2023-08-06T00:09:49;97774.91;;;16.85;70.52
77323;BME280;66384;51.052;9.850;2023-08-06T00:12:20;97769.89;;;16.83;70.56
77323;BME280;66384;51.052;9.850;2023-08-06T00:14:53;97762.08;;;16.82;70.74
77323;BME280;66384;51.052;9.850;2023-08-06T00:17:25;97749.41;;;16.82;70.81
77323;BME280;66384;51.052;9.850;2023-08-06T00:19:56;97742.63;;;16.82;70.64
77323;BME280;66384;51.052;9.850;2023-08-06T00:22:28;97737.20;;;16.86;70.51
77323;BME280;66384;51.052;9.850;2023-08-06T00:24:59;97737.70;;;16.87;70.59
77323;BME280;66384;51.052;9.850;2023-08-06T00:27:31;97732.66;;;16.88;70.62
77323;BME280;66384;51.052;9.850;2023-08-06T00:30:04;97729.38;;;16.87;70.63
77323;BME280;66384;51.052;9.850;2023-08-06T00:32:36;97727.50;;;16.84;70.77
77323;BME280;66384;51.052;9.850;2023-08-06T00:35:09;97723.02;;;16.81;70.70
77323;BME280;66384;51.052;9.850;2023-08-06T00:37:40;97718.90;;;16.77;70.82
77323;BME280;66384;51.052;9.850;2023-08-06T00:40:12;97720.33;;;16.74;70.80
77323;BME280;66384;51.052;9.850;2023-08-06T00:42:43;97719.50;;;16.71;70.92
77323;BME280;66384;51.052;9.850;2023-08-06T00:45:16;97722.98;;;16.69;71.07
77323;BME280;66384;51.052;9.850;2023-08-06T00:47:48;97719.52;;;16.69;71.21
77323;BME280;66384;51.052;9.850;2023-08-06T00:50:20;97721.98;;;16.67;71.24
77323;BME280;66384;51.052;9.850;2023-08-06T00:52:53;97718.02;;;16.65;71.09
77323;BME280;66384;51.052;9.850;2023-08-06T00:55:25;97714.73;;;16.63;71.25
77323;BME280;66384;51.052;9.850;2023-08-06T00:57:57;97716.50;;;16.61;71.17
77323;BME280;66384;51.052;9.850;2023-08-06T01:00:28;97715.66;;;16.59;71.21
77323;BME280;66384;51.052;9.850;2023-08-06T01:03:00;97712.56;;;16.57;71.32
77323;BME280;66384;51.052;9.850;2023-08-06T01:05:33;97710.34;;;16.55;71.34
77323;BME280;66384;51.052;9.850;2023-08-06T01:08:21;97710.17;;;16.54;71.46
77323;BME280;66384;51.052;9.850;2023-08-06T01:11:08;97707.05;;;16.54;71.55
77323;BME280;66384;51.052;9.850;2023-08-06T01:13:46;97703.80;;;16.52;71.62
77323;BME280;66384;51.052;9.850;2023-08-06T01:16:21;97701.89;;;16.50;71.67
77323;BME280;66384;51.052;9.850;2023-08-06T01:18:54;97702.42;;;16.49;71.64
77323;BME280;66384;51.052;9.850;2023-08-06T01:21:26;97698.50;;;16.45;71.65
77323;BME280;66384;51.052;9.850;2023-08-06T01:23:57;97693.67;;;16.43;71.84
77323;BME280;66384;51.052;9.850;2023-08-06T01:26:33;97688.33;;;16.40;71.81
77323;BME280;66384;51.052;9.850;2023-08-06T01:29:12;97686.79;;;16.37;72.10
77323;BME280;66384;51.052;9.850;2023-08-06T01:31:50;97693.72;;;16.38;72.03
77323;BME280;66384;51.052;9.850;2023-08-06T01:34:25;97694.27;;;16.36;72.03
77323;BME280;66384;51.052;9.850;2023-08-06T01:36:59;97692.58;;;16.33;72.01
77323;BME280;66384;51.052;9.850;2023-08-06T01:39:34;97689.80;;;16.32;72.20
77323;BME280;66384;51.052;9.850;2023-08-06T01:42:06;97688.41;;;16.33;72.21
77323;BME280;66384;51.052;9.850;2023-08-06T01:44:39;97691.52;;;16.34;72.21
77323;BME280;66384;51.052;9.850;2023-08-06T01:47:10;97692.39;;;16.34;72.15
77323;BME280;66384;51.052;9.850;2023-08-06T01:49:43;97686.14;;;16.34;72.10
77323;BME280;66384;51.052;9.850;2023-08-06T01:52:14;97684.91;;;16.34;72.10
77323;BME280;66384;51.052;9.850;2023-08-06T01:54:46;97686.16;;;16.33;72.13
77323;BME280;66384;51.052;9.850;2023-08-06T01:57:17;97685.65;;;16.33;72.23
77323;BME280;66384;51.052;9.850;2023-08-06T01:59:49;97690.85;;;16.31;72.35
77323;BME280;66384;51.052;9.850;2023-08-06T02:02:20;97689.66;;;16.29;72.38
77323;BME280;66384;51.052;9.850;2023-08-06T02:04:52;97684.81;;;16.28;72.52
77323;BME280;66384;51.052;9.850;2023-08-06T02:07:24;97683.27;;;16.28;72.63
77323;BME280;66384;51.052;9.850;2023-08-06T02:09:55;97676.31;;;16.29;72.54
77323;BME280;66384;51.052;9.850;2023-08-06T02:12:27;97676.80;;;16.31;72.75
77323;BME280;66384;51.052;9.850;2023-08-06T02:14:58;97675.40;;;16.33;72.72
77323;BME280;66384;51.052;9.850;2023-08-06T02:17:30;97671.06;;;16.33;72.73
77323;BME280;66384;51.052;9.850;2023-08-06T02:20:02;97670.39;;;16.31;72.63
77323;BME280;66384;51.052;9.850;2023-08-06T02:22:33;97665.21;;;16.28;72.67
77323;BME280;66384;51.052;9.850;2023-08-06T02:25:07;97661.59;;;16.28;72.90
77323;BME280;66384;51.052;9.850;2023-08-06T02:27:39;97657.08;;;16.27;72.91
77323;BME280;66384;51.052;9.850;2023-08-06T02:30:11;97651.54;;;16.27;72.84
77323;BME280;66384;51.052;9.850;2023-08-06T02:32:42;97646.67;;;16.26;72.87
77323;BME280;66384;51.052;9.850;2023-08-06T02:35:14;97644.24;;;16.26;73.00
77323;BME280;66384;51.052;9.850;2023-08-06T02:37:46;97641.47;;;16.26;72.87
77323;BME280;66384;51.052;9.850;2023-08-06T02:40:18;97637.49;;;16.26;72.83
77323;BME280;66384;51.052;9.850;2023-08-06T02:42:49;97633.18;;;16.25;72.97
77323;BME280;66384;51.052;9.850;2023-08-06T02:45:21;97635.06;;;16.26;73.00
77323;BME280;66384;51.052;9.850;2023-08-06T02:47:52;97628.63;;;16.28;73.11
77323;BME280;66384;51.052;9.850;2023-08-06T02:50:24;97623.04;;;16.29;73.15
77323;BME280;66384;51.052;9.850;2023-08-06T02:52:55;97623.58;;;16.28;72.95
77323;BME280;66384;51.052;9.850;2023-08-06T02:55:27;97617.84;;;16.29;73.12
77323;BME280;66384;51.052;9.850;2023-08-06T02:57:59;97614.02;;;16.30;73.19
77323;BME280;66384;51.052;9.850;2023-08-06T03:00:30;97610.52;;;16.31;73.25
77323;BME280;66384;51.052;9.850;2023-08-06T03:03:02;97609.64;;;16.32;73.01
77323;BME280;66384;51.052;9.850;2023-08-06T03:05:33;97605.30;;;16.32;72.94
77323;BME280;66384;51.052;9.850;2023-08-06T03:08:05;97599.91;;;16.33;73.03
77323;BME280;66384;51.052;9.850;2023-08-06T03:10:36;97597.30;;;16.34;73.08
77323;BME280;66384;51.052;9.850;2023-08-06T03:13:10;97593.63;;;16.35;73.19
77323;BME280;66384;51.052;9.850;2023-08-06T03:15:42;97592.24;;;16.36;73.22
77323;BME280;66384;51.052;9.850;2023-08-06T03:18:13;97586.88;;;16.35;73.35
77323;BME280;66384;51.052;9.850;2023-08-06T03:20:45;97583.27;;;16.33;73.23
77323;BME280;66384;51.052;9.850;2023-08-06T03:23:17;97584.15;;;16.31;73.01
77323;BME280;66384;51.052;9.850;2023-08-06T03:25:49;97583.13;;;16.30;73.11
77323;BME280;66384;51.052;9.850;2023-08-06T03:28:20;97580.70;;;16.29;73.17
77323;BME280;66384;51.052;9.850;2023-08-06T03:31:01;97575.02;;;16.28;73.35
77323;BME280;66384;51.052;9.850;2023-08-06T03:33:33;97575.53;;;16.27;73.43
77323;BME280;66384;51.052;9.850;2023-08-06T03:36:05;97565.83;;;16.27;73.37
77323;BME280;66384;51.052;9.850;2023-08-06T03:38:37;97568.08;;;16.28;73.51
77323;BME280;66384;51.052;9.850;2023-08-06T03:41:08;97569.29;;;16.27;73.60
77323;BME280;66384;51.052;9.850;2023-08-06T03:43:40;97565.13;;;16.27;73.48
77323;BME280;66384;51.052;9.850;2023-08-06T03:46:12;97567.94;;;16.25;73.59
77323;BME280;66384;51.052;9.850;2023-08-06T03:48:43;97567.44;;;16.23;73.54
77323;BME280;66384;51.052;9.850;2023-08-06T03:51:15;97562.95;;;16.22;73.64
77323;BME280;66384;51.052;9.850;2023-08-06T03:53:46;97552.91;;;16.20;73.65
77323;BME280;66384;51.052;9.850;2023-08-06T03:56:18;97549.80;;;16.19;73.65
77323;BME280;66384;51.052;9.850;2023-08-06T03:58:50;97549.30;;;16.17;73.53
77323;BME280;66384;51.052;9.850;2023-08-06T04:01:21;97546.56;;;16.15;73.46
77323;BME280;66384;51.052;9.850;2023-08-06T04:03:53;97542.95;;;16.13;73.17
77323;BME280;66384;51.052;9.850;2023-08-06T04:06:25;97548.73;;;16.10;73.04
77323;BME280;66384;51.052;9.850;2023-08-06T04:08:57;97554.31;;;16.07;73.05
77323;BME280;66384;51.052;9.850;2023-08-06T04:11:28;97559.55;;;16.05;73.04
77323;BME280;66384;51.052;9.850;2023-08-06T04:14:00;97561.85;;;16.02;73.08
77323;BME280;66384;51.052;9.850;2023-08-06T04:16:31;97563.44;;;15.99;73.13
77323;BME280;66384;51.052;9.850;2023-08-06T04:19:03;97559.48;;;15.97;73.17
77323;BME280;66384;51.052;9.850;2023-08-06T04:21:34;97558.27;;;15.97;73.00
77323;BME280;66384;51.052;9.850;2023-08-06T04:24:06;97559.52;;;15.95;72.86
77323;BME280;66384;51.052;9.850;2023-08-06T04:26:38;97560.11;;;15.88;72.81
77323;BME280;66384;51.052;9.850;2023-08-06T04:29:09;97558.66;;;15.81;72.73
77323;BME280;66384;51.052;9.850;2023-08-06T04:31:41;97557.52;;;15.76;72.73
77323;BME280;66384;51.052;9.850;2023-08-06T04:34:12;97551.52;;;15.69;72.76
77323;BME280;66384;51.052;9.850;2023-08-06T04:36:44;97552.76;;;15.65;72.78
77323;BME280;66384;51.052;9.850;2023-08-06T04:39:15;97550.73;;;15.61;72.74
77323;BME280;66384;51.052;9.850;2023-08-06T04:41:47;97552.20;;;15.54;72.66
77323;BME280;66384;51.052;9.850;2023-08-06T04:44:18;97549.82;;;15.50;72.75
77323;BME280;66384;51.052;9.850;2023-08-06T04:46:50;97552.63;;;15.48;72.86
77323;BME280;66384;51.052;9.850;2023-08-06T04:49:22;97550.70;;;15.48;73.01
77323;BME280;66384;51.052;9.850;2023-08-06T04:51:54;97554.52;;;15.48;73.10
77323;BME280;66384;51.052;9.850;2023-08-06T04:54:25;97554.02;;;15.47;73.10
77323;BME280;66384;51.052;9.850;2023-08-06T04:56:57;97558.70;;;15.47;73.27
77323;BME280;66384;51.052;9.850;2023-08-06T04:59:28;97560.08;;;15.47;73.25
77323;BME280;66384;51.052;9.850;2023-08-06T05:02:00;97558.00;;;15.47;73.37
77323;BME280;66384;51.052;9.850;2023-08-06T05:04:32;97561.30;;;15.45;73.56
77323;BME280;66384;51.052;9.850;2023-08-06T05:07:04;97561.98;;;15.47;73.64
77323;BME280;66384;51.052;9.850;2023-08-06T05:09:36;97560.02;;;15.53;73.66
77323;BME280;66384;51.052;9.850;2023-08-06T05:12:10;97558.05;;;15.58;73.76
77323;BME280;66384;51.052;9.850;2023-08-06T05:14:41;97556.79;;;15.62;73.54
77323;BME280;66384;51.052;9.850;2023-08-06T05:17:13;97551.20;;;15.66;73.66
77323;BME280;66384;51.052;9.850;2023-08-06T05:19:45;97551.52;;;15.70;73.61
77323;BME280;66384;51.052;9.850;2023-08-06T05:22:16;97545.39;;;15.74;73.49
77323;BME280;66384;51.052;9.850;2023-08-06T05:24:48;97547.96;;;15.77;73.49
77323;BME280;66384;51.052;9.850;2023-08-06T05:27:20;97548.78;;;15.80;73.46
77323;BME280;66384;51.052;9.850;2023-08-06T05:29:54;97552.70;;;15.85;73.42
77323;BME280;66384;51.052;9.850;2023-08-06T05:32:26;97557.50;;;15.89;73.43
77323;BME280;66384;51.052;9.850;2023-08-06T05:34:57;97560.23;;;15.93;73.37
77323;BME280;66384;51.052;9.850;2023-08-06T05:37:29;97560.16;;;15.98;73.24
77323;BME280;66384;51.052;9.850;2023-08-06T05:40:00;97559.55;;;16.04;73.40
77323;BME280;66384;51.052;9.850;2023-08-06T05:42:33;97561.04;;;16.10;73.19
77323;BME280;66384;51.052;9.850;2023-08-06T05:45:05;97559.52;;;16.18;73.09
77323;BME280;66384;51.052;9.850;2023-08-06T05:47:37;97556.83;;;16.25;72.91
77323;BME280;66384;51.052;9.850;2023-08-06T05:50:10;97555.51;;;16.32;72.61
77323;BME280;66384;51.052;9.850;2023-08-06T05:52:41;97551.24;;;16.39;72.50
77323;BME280;66384;51.052;9.850;2023-08-06T05:55:13;97546.81;;;16.45;72.22
77323;BME280;66384;51.052;9.850;2023-08-06T05:57:45;97546.91;;;16.50;71.98
77323;BME280;66384;51.052;9.850;2023-08-06T06:00:17;97550.45;;;16.56;71.92
77323;BME280;66384;51.052;9.850;2023-08-06T06:02:49;97545.72;;;16.58;71.79
77323;BME280;66384;51.052;9.850;2023-08-06T06:05:20;97543.98;;;16.59;71.71
77323;BME280;66384;51.052;9.850;2023-08-06T06:07:51;97542.19;;;16.63;71.52
77323;BME280;66384;51.052;9.850;2023-08-06T06:10:23;97539.83;;;16.68;71.53
77323;BME280;66384;51.052;9.850;2023-08-06T06:12:54;97538.70;;;16.74;71.49
77323;BME280;66384;51.052;9.850;2023-08-06T06:15:26;97536.58;;;16.78;71.52
77323;BME280;66384;51.052;9.850;2023-08-06T06:17:58;97536.16;;;16.81;71.63
77323;BME280;66384;51.052;9.850;2023-08-06T06:20:31;97528.95;;;16.87;71.45
77323;BME280;66384;51.052;9.850;2023-08-06T06:23:02;97527.14;;;16.91;71.39
77323;BME280;66384;51.052;9.850;2023-08-06T06:25:34;97525.33;;;16.96;71.18
77323;BME280;66384;51.052;9.850;2023-08-06T06:28:06;97527.15;;;17.00;71.12
77323;BME280;66384;51.052;9.850;2023-08-06T06:30:37;97528.14;;;17.03;71.16
77323;BME280;66384;51.052;9.850;2023-08-06T06:33:09;97529.15;;;17.05;71.25
77323;BME280;66384;51.052;9.850;2023-08-06T06:35:41;97527.03;;;17.06;71.26
77323;BME280;66384;51.052;9.850;2023-08-06T06:38:12;97528.73;;;17.08;71.24
77323;BME280;66384;51.052;9.850;2023-08-06T06:40:43;97528.20;;;17.09;71.32
77323;BME280;66384;51.052;9.850;2023-08-06T06:43:15;97522.65;;;17.09;71.32
77323;BME280;66384;51.052;9.850;2023-08-06T06:45:47;97524.20;;;17.10;71.29
77323;BME280;66384;51.052;9.850;2023-08-06T06:48:18;97525.21;;;17.11;71.38
77323;BME280;66384;51.052;9.850;2023-08-06T06:50:50;97519.98;;;17.12;71.37
77323;BME280;66384;51.052;9.850;2023-08-06T06:53:22;97519.06;;;17.15;71.07
77323;BME280;66384;51.052;9.850;2023-08-06T06:56:01;97514.14;;;17.17;71.10
77323;BME280;66384;51.052;9.850;2023-08-06T06:58:33;97517.25;;;17.18;70.92
77323;BME280;66384;51.052;9.850;2023-08-06T07:01:04;97512.74;;;17.17;71.01
77323;BME280;66384;51.052;9.850;2023-08-06T07:03:36;97512.73;;;17.19;70.78
77323;BME280;66384;51.052;9.850;2023-08-06T07:06:08;97510.41;;;17.21;70.64
77323;BME280;66384;51.052;9.850;2023-08-06T07:08:39;97510.05;;;17.22;70.14
77323;BME280;66384;51.052;9.850;2023-08-06T07:11:11;97508.98;;;17.23;69.91
77323;BME280;66384;51.052;9.850;2023-08-06T07:13:42;97508.27;;;17.24;69.84
77323;BME280;66384;51.052;9.850;2023-08-06T07:16:14;97502.77;;;17.30;69.65
77323;BME280;66384;51.052;9.850;2023-08-06T07:18:45;97501.20;;;17.40;69.55
77323;BME280;66384;51.052;9.850;2023-08-06T07:21:17;97500.63;;;17.51;69.43
77323;BME280;66384;51.052;9.850;2023-08-06T07:23:49;97503.70;;;17.61;69.19
77323;BME280;66384;51.052;9.850;2023-08-06T07:26:20;97499.88;;;17.69;68.83
77323;BME280;66384;51.052;9.850;2023-08-06T07:28:52;97496.81;;;17.74;68.04
77323;BME280;66384;51.052;9.850;2023-08-06T07:31:24;97493.84;;;17.74;68.03
77323;BME280;66384;51.052;9.850;2023-08-06T07:33:55;97491.29;;;17.72;67.87
77323;BME280;66384;51.052;9.850;2023-08-06T07:36:27;97492.15;;;17.72;67.48
77323;BME280;66384;51.052;9.850;2023-08-06T07:38:59;97491.40;;;17.76;67.15
77323;BME280;66384;51.052;9.850;2023-08-06T07:41:30;97489.65;;;17.77;66.70
77323;BME280;66384;51.052;9.850;2023-08-06T07:44:02;97487.08;;;17.74;66.71
77323;BME280;66384;51.052;9.850;2023-08-06T07:46:34;97486.02;;;17.75;66.67
77323;BME280;66384;51.052;9.850;2023-08-06T07:49:06;97486.30;;;17.79;66.69
77323;BME280;66384;51.052;9.850;2023-08-06T07:51:37;97485.76;;;17.81;66.87
77323;BME280;66384;51.052;9.850;2023-08-06T07:54:09;97484.98;;;17.85;66.84
77323;BME280;66384;51.052;9.850;2023-08-06T07:56:41;97480.05;;;17.87;66.97
77323;BME280;66384;51.052;9.850;2023-08-06T07:59:12;97482.48;;;17.86;66.77
77323;BME280;66384;51.052;9.850;2023-08-06T08:01:44;97483.89;;;17.87;66.68
77323;BME280;66384;51.052;9.850;2023-08-06T08:04:15;97479.41;;;17.84;66.64
77323;BME280;66384;51.052;9.850;2023-08-06T08:06:47;97476.65;;;17.83;66.66
77323;BME280;66384;51.052;9.850;2023-08-06T08:09:18;97474.52;;;17.85;66.34
77323;BME280;66384;51.052;9.850;2023-08-06T08:11:50;97475.75;;;17.85;66.11
77323;BME280;66384;51.052;9.850;2023-08-06T08:14:23;97473.05;;;17.81;65.89
77323;BME280;66384;51.052;9.850;2023-08-06T08:16:54;97469.36;;;17.83;65.77
77323;BME280;66384;51.052;9.850;2023-08-06T08:19:26;97464.34;;;17.89;65.51
77323;BME280;66384;51.052;9.850;2023-08-06T08:21:58;97465.57;;;17.96;65.31
77323;BME280;66384;51.052;9.850;2023-08-06T08:24:30;97461.77;;;18.02;65.37
77323;BME280;66384;51.052;9.850;2023-08-06T08:27:02;97462.11;;;18.10;65.08
77323;BME280;66384;51.052;9.850;2023-08-06T08:29:33;97460.79;;;18.14;64.94
77323;BME280;66384;51.052;9.850;2023-08-06T08:32:05;97456.11;;;18.22;64.89
77323;BME280;66384;51.052;9.850;2023-08-06T08:34:37;97455.60;;;18.27;64.58
77323;BME280;66384;51.052;9.850;2023-08-06T08:37:08;97457.87;;;18.35;64.03
77323;BME280;66384;51.052;9.850;2023-08-06T08:39:40;97456.52;;;18.39;63.39
77323;BME280;66384;51.052;9.850;2023-08-06T08:42:11;97451.24;;;18.41;63.09
77323;BME280;66384;51.052;9.850;2023-08-06T08:44:44;97453.75;;;18.46;63.17
77323;BME280;66384;51.052;9.850;2023-08-06T08:47:16;97449.39;;;18.53;62.86
77323;BME280;66384;51.052;9.850;2023-08-06T08:49:48;97452.54;;;18.59;62.81
77323;BME280;66384;51.052;9.850;2023-08-06T08:52:21;97450.80;;;18.66;62.85
77323;BME280;66384;51.052;9.850;2023-08-06T08:54:54;97445.44;;;18.72;62.62
77323;BME280;66384;51.052;9.850;2023-08-06T08:57:25;97446.99;;;18.79;62.34
77323;BME280;66384;51.052;9.850;2023-08-06T08:59:57;97444.61;;;18.83;61.80
77323;BME280;66384;51.052;9.850;2023-08-06T09:02:29;97442.13;;;18.85;61.48
77323;BME280;66384;51.052;9.850;2023-08-06T09:05:03;97440.73;;;18.85;61.17
77323;BME280;66384;51.052;9.850;2023-08-06T09:07:41;97444.47;;;18.82;60.88
77323;BME280;66384;51.052;9.850;2023-08-06T09:10:16;97445.06;;;18.80;60.79
77323;BME280;66384;51.052;9.850;2023-08-06T09:12:49;97438.62;;;18.86;60.60
77323;BME280;66384;51.052;9.850;2023-08-06T09:15:25;97435.33;;;18.98;60.43
77323;BME280;66384;51.052;9.850;2023-08-06T09:17:57;97435.38;;;19.09;60.02
77323;BME280;66384;51.052;9.850;2023-08-06T09:20:29;97430.74;;;19.25;60.03
77323;BME280;66384;51.052;9.850;2023-08-06T09:23:08;97432.36;;;19.41;59.97
77323;BME280;66384;51.052;9.850;2023-08-06T09:25:41;97436.35;;;19.53;59.29
77323;BME280;66384;51.052;9.850;2023-08-06T09:28:12;97436.88;;;19.60;58.60
77323;BME280;66384;51.052;9.850;2023-08-06T09:30:44;97433.43;;;19.64;57.35
77323;BME280;66384;51.052;9.850;2023-08-06T09:33:20;97432.00;;;19.66;57.23
77323;BME280;66384;51.052;9.850;2023-08-06T09:35:53;97438.69;;;19.63;57.05
77323;BME280;66384;51.052;9.850;2023-08-06T09:38:26;97443.06;;;19.56;57.78
77323;BME280;66384;51.052;9.850;2023-08-06T09:41:08;97436.69;;;19.48;58.64
77323;BME280;66384;51.052;9.850;2023-08-06T09:43:44;97439.05;;;19.44;59.07
77323;BME280;66384;51.052;9.850;2023-08-06T09:46:15;97440.10;;;19.45;59.16
77323;BME280;66384;51.052;9.850;2023-08-06T09:48:48;97437.69;;;19.44;58.88
77323;BME280;66384;51.052;9.850;2023-08-06T09:51:21;97434.57;;;19.37;59.18
77323;BME280;66384;51.052;9.850;2023-08-06T09:53:53;97436.73;;;19.35;59.21
77323;BME280;66384;51.052;9.850;2023-08-06T09:56:25;97434.30;;;19.34;59.33
77323;BME280;66384;51.052;9.850;2023-08-06T09:58:57;97429.08;;;19.40;59.38
77323;BME280;66384;51.052;9.850;2023-08-06T10:01:30;97430.52;;;19.50;59.48
77323;BME280;66384;51.052;9.850;2023-08-06T10:04:03;97429.26;;;19.57;59.31
77323;BME280;66384;51.052;9.850;2023-08-06T10:06:52;97430.77;;;19.60;59.19
77323;BME280;66384;51.052;9.850;2023-08-06T10:09:25;97428.09;;;19.56;59.43
77323;BME280;66384;51.052;9.850;2023-08-06T10:11:58;97428.14;;;19.60;59.49
77323;BME280;66384;51.052;9.850;2023-08-06T10:14:33;97426.36;;;19.67;59.25
77323;BME280;66384;51.052;9.850;2023-08-06T10:17:06;97421.80;;;19.80;58.51
77323;BME280;66384;51.052;9.850;2023-08-06T10:19:39;97421.45;;;19.91;57.66
77323;BME280;66384;51.052;9.850;2023-08-06T10:22:12;97422.00;;;20.02;57.59
77323;BME280;66384;51.052;9.850;2023-08-06T10:24:54;97420.54;;;20.09;57.11
77323;BME280;66384;51.052;9.850;2023-08-06T10:27:32;97420.05;;;20.13;56.89
77323;BME280;66384;51.052;9.850;2023-08-06T10:30:24;97415.42;;;20.15;56.89
77323;BME280;66384;51.052;9.850;2023-08-06T10:32:57;97414.23;;;20.20;57.31
77323;BME280;66384;51.052;9.850;2023-08-06T10:35:36;97411.94;;;20.26;57.22
77323;BME280;66384;51.052;9.850;2023-08-06T10:38:09;97414.09;;;20.30;57.11
77323;BME280;66384;51.052;9.850;2023-08-06T10:40:43;97414.33;;;20.33;56.81
77323;BME280;66384;51.052;9.850;2023-08-06T10:43:29;97419.82;;;20.36;56.00
77323;BME280;66384;51.052;9.850;2023-08-06T10:46:02;97414.95;;;20.35;55.82
77323;BME280;66384;51.052;9.850;2023-08-06T10:48:37;97414.55;;;20.36;55.60
77323;BME280;66384;51.052;9.850;2023-08-06T10:51:11;97407.10;;;20.40;55.83
77323;BME280;66384;51.052;9.850;2023-08-06T10:53:45;97403.19;;;20.42;55.67
77323;BME280;66384;51.052;9.850;2023-08-06T10:56:18;97399.83;;;20.49;56.21
77323;BME280;66384;51.052;9.850;2023-08-06T10:58:51;97400.85;;;20.56;56.51
77323;BME280;66384;51.052;9.850;2023-08-06T11:01:23;97403.28;;;20.61;55.93
77323;BME280;66384;51.052;9.850;2023-08-06T11:03:55;97401.18;;;20.61;54.96
77323;BME280;66384;51.052;9.850;2023-08-06T11:06:27;97402.33;;;20.63;55.14
77323;BME280;66384;51.052;9.850;2023-08-06T11:08:58;97400.10;;;20.67;54.42
77323;BME280;66384;51.052;9.850;2023-08-06T11:11:30;97396.66;;;20.65;54.63
77323;BME280;66384;51.052;9.850;2023-08-06T11:14:01;97393.23;;;20.63;54.37
77323;BME280;66384;51.052;9.850;2023-08-06T11:16:33;97390.36;;;20.50;54.42
77323;BME280;66384;51.052;9.850;2023-08-06T11:19:07;97387.04;;;20.34;55.53
77323;BME280;66384;51.052;9.850;2023-08-06T11:21:40;97385.40;;;20.21;56.20
77323;BME280;66384;51.052;9.850;2023-08-06T11:24:14;97382.41;;;20.06;56.93
77323;BME280;66384;51.052;9.850;2023-08-06T11:26:45;97382.21;;;19.95;57.45
77323;BME280;66384;51.052;9.850;2023-08-06T11:29:18;97385.90;;;19.84;58.35
77323;BME280;66384;51.052;9.850;2023-08-06T11:31:49;97385.52;;;19.74;60.02
77323;BME280;66384;51.052;9.850;2023-08-06T11:34:21;97389.80;;;19.65;60.96
77323;BME280;66384;51.052;9.850;2023-08-06T11:36:54;97392.58;;;19.53;61.70
77323;BME280;66384;51.052;9.850;2023-08-06T11:39:28;97397.98;;;19.42;61.98
77323;BME280;66384;51.052;9.850;2023-08-06T11:42:00;97394.12;;;19.31;62.37
77323;BME280;66384;51.052;9.850;2023-08-06T11:44:34;97391.02;;;19.24;62.63
77323;BME280;66384;51.052;9.850;2023-08-06T11:47:11;97385.27;;;19.18;62.88
77323;BME280;66384;51.052;9.850;2023-08-06T11:49:44;97381.80;;;19.12;63.25
77323;BME280;66384;51.052;9.850;2023-08-06T11:52:18;97376.89;;;19.06;63.36
77323;BME280;66384;51.052;9.850;2023-08-06T11:55:01;97373.27;;;19.05;63.72
77323;BME280;66384;51.052;9.850;2023-08-06T11:57:37;97374.79;;;19.06;63.68
77323;BME280;66384;51.052;9.850;2023-08-06T12:00:12;97374.74;;;19.08;63.70
77323;BME280;66384;51.052;9.850;2023-08-06T12:02:45;97376.08;;;19.17;64.59
77323;BME280;66384;51.052;9.850;2023-08-06T12:05:18;97373.48;;;19.33;64.62
77323;BME280;66384;51.052;9.850;2023-08-06T12:07:51;97373.18;;;19.54;64.54
77323;BME280;66384;51.052;9.850;2023-08-06T12:10:25;97369.02;;;19.77;63.43
77323;BME280;66384;51.052;9.850;2023-08-06T12:12:57;97366.39;;;19.94;60.28
77323;BME280;66384;51.052;9.850;2023-08-06T12:15:29;97361.15;;;20.10;59.74
77323;BME280;66384;51.052;9.850;2023-08-06T12:18:03;97358.65;;;20.27;59.20
77323;BME280;66384;51.052;9.850;2023-08-06T12:20:34;97354.66;;;20.41;58.72
77323;BME280;66384;51.052;9.850;2023-08-06T12:23:06;97353.27;;;20.57;59.01
77323;BME280;66384;51.052;9.850;2023-08-06T12:25:38;97351.66;;;20.72;58.35
77323;BME280;66384;51.052;9.850;2023-08-06T12:28:10;97354.86;;;20.85;56.98
77323;BME280;66384;51.052;9.850;2023-08-06T12:30:43;97352.84;;;20.94;56.27
77323;BME280;66384;51.052;9.850;2023-08-06T12:33:15;97353.97;;;20.96;56.10
77323;BME280;66384;51.052;9.850;2023-08-06T12:35:47;97352.27;;;20.95;56.17
77323;BME280;66384;51.052;9.850;2023-08-06T12:38:19;97358.13;;;20.92;56.37
77323;BME280;66384;51.052;9.850;2023-08-06T12:40:50;97360.93;;;20.82;56.53
77323;BME280;66384;51.052;9.850;2023-08-06T12:43:22;97361.36;;;20.70;57.26
77323;BME280;66384;51.052;9.850;2023-08-06T12:45:54;97363.56;;;20.58;57.80
77323;BME280;66384;51.052;9.850;2023-08-06T12:48:25;97360.73;;;20.47;58.59
77323;BME280;66384;51.052;9.850;2023-08-06T12:50:57;97363.20;;;20.37;59.18
77323;BME280;66384;51.052;9.850;2023-08-06T12:53:28;97364.50;;;20.30;59.81
77323;BME280;66384;51.052;9.850;2023-08-06T12:56:00;97366.55;;;20.20;59.66
77323;BME280;66384;51.052;9.850;2023-08-06T12:58:31;97359.79;;;20.09;59.46
77323;BME280;66384;51.052;9.850;2023-08-06T13:01:03;97358.98;;;20.01;59.65
77323;BME280;66384;51.052;9.850;2023-08-06T13:03:34;97361.98;;;20.00;59.86
77323;BME280;66384;51.052;9.850;2023-08-06T13:06:06;97362.42;;;20.03;60.23
77323;BME280;66384;51.052;9.850;2023-08-06T13:08:39;97366.08;;;20.04;59.96
77323;BME280;66384;51.052;9.850;2023-08-06T13:11:11;97364.20;;;20.02;59.12
77323;BME280;66384;51.052;9.850;2023-08-06T13:13:42;97364.23;;;20.01;58.36
77323;BME280;66384;51.052;9.850;2023-08-06T13:16:14;97364.48;;;20.04;58.17
77323;BME280;66384;51.052;9.850;2023-08-06T13:18:45;97368.68;;;20.09;57.99
77323;BME280;66384;51.052;9.850;2023-08-06T13:21:17;97364.73;;;20.07;57.71
77323;BME280;66384;51.052;9.850;2023-08-06T13:23:48;97364.23;;;20.07;57.95
77323;BME280;66384;51.052;9.850;2023-08-06T13:26:20;97370.66;;;20.07;58.30
77323;BME280;66384;51.052;9.850;2023-08-06T13:28:52;97368.36;;;20.04;58.70